createdAt,value
2023-02-09T00:01:31.998Z,97058.09
2023-02-09T00:06:34.425Z,97057.13
2023-02-09T00:11:54.432Z,97061.78
2023-02-09T00:16:56.830Z,97073.50
2023-02-09T00:21:59.234Z,97070.28
2023-02-09T00:27:01.707Z,97076.72
2023-02-09T00:32:04.092Z,97073.81
2023-02-09T00:37:06.572Z,97072.09
2023-02-09T00:42:11.190Z,97062.31
2023-02-09T00:47:13.703Z,97054.59
2023-02-09T00:52:16.227Z,97040.69
2023-02-09T00:57:18.591Z,97044.97
2023-02-09T01:02:20.999Z,97050.78
2023-02-09T01:07:23.385Z,97060.41
2023-02-09T01:12:25.788Z,97051.03
2023-02-09T01:17:28.167Z,97058.50
2023-02-09T01:22:30.563Z,97053.53
2023-02-09T01:27:32.873Z,97053.47
2023-02-09T01:32:35.369Z,97052.91
2023-02-09T01:37:37.785Z,97052.91
2023-02-09T01:42:40.265Z,97048.78
2023-02-09T01:47:42.771Z,97040.84
2023-02-09T01:52:45.165Z,97038.19
2023-02-09T01:57:47.458Z,97033.50
2023-02-09T02:02:49.793Z,97026.19
2023-02-09T02:07:52.373Z,97021.78
2023-02-09T02:12:54.719Z,97024.09
2023-02-09T02:17:57.084Z,97019.91
2023-02-09T02:22:59.434Z,97018.06
2023-02-09T02:28:01.824Z,97030.59
2023-02-09T02:33:04.229Z,97033.88
2023-02-09T02:38:06.668Z,97027.53
2023-02-09T02:43:09.259Z,97019.97
2023-02-09T02:48:11.672Z,97020.66
2023-02-09T02:53:14.334Z,97014.75
2023-02-09T02:58:17.016Z,97012.41
2023-02-09T03:03:19.739Z,97003.16
2023-02-09T03:08:22.223Z,97009.63
2023-02-09T03:13:25.062Z,97014.41
2023-02-09T03:18:28.058Z,97018.44
2023-02-09T03:23:30.624Z,97004.94
2023-02-09T03:28:33.370Z,97016.75
2023-02-09T03:33:35.751Z,97013.97
2023-02-09T03:38:38.172Z,97017.56
2023-02-09T03:43:58.404Z,97019.34
2023-02-09T03:49:00.865Z,97008.75
2023-02-09T03:54:03.947Z,97021.00
2023-02-09T03:59:06.308Z,97009.19
2023-02-09T04:04:08.759Z,97007.00
2023-02-09T04:09:11.184Z,97012.16
2023-02-09T04:14:13.499Z,97014.63
2023-02-09T04:19:15.944Z,97023.13
2023-02-09T04:24:19.186Z,97027.09
2023-02-09T04:29:21.599Z,97020.22
2023-02-09T04:34:24.813Z,97014.03
2023-02-09T04:39:27.322Z,97023.13
2023-02-09T04:44:29.938Z,97021.28
2023-02-09T04:49:32.369Z,97021.56
2023-02-09T04:54:35.060Z,97016.34
2023-02-09T04:59:39.168Z,97026.78
2023-02-09T05:04:41.693Z,97032.09
2023-02-09T05:09:44.099Z,97041.41
2023-02-09T05:14:46.471Z,97041.59
2023-02-09T05:19:48.895Z,97042.53
2023-02-09T05:24:51.215Z,97041.22
2023-02-09T05:29:53.516Z,97044.28
2023-02-09T05:34:55.805Z,97053.03
2023-02-09T05:39:58.384Z,97061.69
2023-02-09T05:45:00.755Z,97064.56
2023-02-09T05:50:03.137Z,97056.91
2023-02-09T05:55:05.665Z,97054.72
2023-02-09T06:00:08.159Z,97057.41
2023-02-09T06:05:10.583Z,97058.06
2023-02-09T06:10:13.052Z,97057.78
2023-02-09T06:15:16.577Z,97066.88
2023-02-09T06:20:18.937Z,97067.19
2023-02-09T06:25:21.494Z,97069.28
2023-02-09T06:30:24.026Z,97081.38
2023-02-09T06:35:26.367Z,97083.59
2023-02-09T06:40:28.664Z,97090.19
2023-02-09T06:45:31.103Z,97102.19
2023-02-09T06:50:33.468Z,97094.22
2023-02-09T06:55:35.858Z,97099.88
2023-02-09T07:00:38.193Z,97101.28
2023-02-09T07:05:40.512Z,97099.38
2023-02-09T07:10:43.256Z,97096.53
2023-02-09T07:15:45.713Z,97106.22
2023-02-09T07:20:48.248Z,97115.03
2023-02-09T07:25:50.771Z,97111.94
2023-02-09T07:30:53.155Z,97114.97
2023-02-09T07:35:55.680Z,97101.78
2023-02-09T07:40:58.127Z,97102.59
2023-02-09T07:46:00.899Z,97105.22
2023-02-09T07:51:03.302Z,97104.34
2023-02-09T07:56:05.802Z,97109.56
2023-02-09T08:01:08.268Z,97107.47
2023-02-09T08:06:10.620Z,97108.66
2023-02-09T08:11:13.186Z,97113.97
2023-02-09T08:16:15.767Z,97114.88
2023-02-09T08:21:18.224Z,97103.91
2023-02-09T08:26:20.792Z,97101.63
2023-02-09T08:31:23.169Z,97094.91
2023-02-09T08:36:25.623Z,97095.06
2023-02-09T08:41:28.116Z,97095.22
2023-02-09T08:46:30.577Z,97104.91
2023-02-09T08:51:33.112Z,97101.50
2023-02-09T08:56:35.481Z,97091.56
2023-02-09T09:01:39.896Z,97096.81
2023-02-09T09:06:42.566Z,97096.22
2023-02-09T09:11:45.182Z,97091.00
2023-02-09T09:16:47.592Z,97086.00
2023-02-09T09:21:49.958Z,97092.00
2023-02-09T09:26:52.250Z,97087.09
2023-02-09T09:31:54.609Z,97079.88
2023-02-09T09:36:57.016Z,97086.50
2023-02-09T09:42:00.743Z,97090.47
2023-02-09T09:47:03.149Z,97098.22
2023-02-09T09:52:06.564Z,97105.66
2023-02-09T09:57:09.144Z,97103.47
2023-02-09T10:02:13.989Z,97110.53
2023-02-09T10:07:17.970Z,97109.19
2023-02-09T10:12:21.693Z,97107.84
2023-02-09T10:17:23.991Z,97111.16
2023-02-09T10:22:26.302Z,97108.78
2023-02-09T10:27:28.701Z,97099.16
2023-02-09T10:32:31.260Z,97089.50
2023-02-09T10:37:33.548Z,97096.34
2023-02-09T10:42:35.874Z,97080.44
2023-02-09T10:47:38.154Z,97073.34
2023-02-09T10:52:40.503Z,97085.81
2023-02-09T10:57:42.941Z,97064.66
2023-02-09T11:02:45.420Z,97064.34
2023-02-09T11:07:47.836Z,97055.25
2023-02-09T11:12:52.087Z,97056.28
2023-02-09T11:17:54.870Z,97052.34
2023-02-09T11:22:57.227Z,97048.19
2023-02-09T11:27:59.694Z,97052.88
2023-02-09T11:33:02.462Z,97044.91
2023-02-09T11:38:04.903Z,97041.16
2023-02-09T11:43:07.336Z,97037.94
2023-02-09T11:48:09.697Z,97029.00
2023-02-09T11:53:12.177Z,97030.72
2023-02-09T11:58:14.658Z,97026.84
2023-02-09T12:03:17.080Z,97021.28
2023-02-09T12:08:19.500Z,97013.41
2023-02-09T12:13:21.898Z,97002.72
2023-02-09T12:18:24.495Z,96999.31
2023-02-09T12:23:26.850Z,96993.59
2023-02-09T12:28:29.211Z,96993.19
2023-02-09T12:33:32.768Z,96986.75
2023-02-09T12:38:35.469Z,96981.06
2023-02-09T12:43:37.798Z,96986.22
2023-02-09T12:48:40.142Z,96971.06
2023-02-09T12:53:43.583Z,96979.03
2023-02-09T12:58:46.061Z,96972.75
2023-02-09T13:03:48.607Z,96963.97
2023-02-09T13:08:53.072Z,96967.38
2023-02-09T13:13:55.680Z,96979.31
2023-02-09T13:18:58.165Z,96972.63
2023-02-09T13:24:00.642Z,96970.53
2023-02-09T13:29:18.216Z,96973.28
2023-02-09T13:34:22.634Z,96979.47
2023-02-09T13:39:25.366Z,96968.13
2023-02-09T13:44:27.947Z,96972.13
2023-02-09T13:49:30.362Z,96977.25
2023-02-09T13:54:32.720Z,96979.06
2023-02-09T13:59:35.241Z,96986.03
2023-02-09T14:04:37.619Z,96984.22
2023-02-09T14:09:40.028Z,96986.66
2023-02-09T14:14:56.291Z,96973.69
2023-02-09T14:19:58.957Z,96981.06
2023-02-09T14:25:01.517Z,96975.06
2023-02-09T14:30:04.067Z,96984.97
2023-02-09T14:35:06.469Z,96982.66
2023-02-09T14:40:09.128Z,96987.19
2023-02-09T14:45:11.438Z,96987.97
2023-02-09T14:50:16.002Z,96991.97
2023-02-09T14:55:18.490Z,96983.44
2023-02-09T15:00:20.843Z,96985.06
2023-02-09T15:05:23.448Z,96988.13
2023-02-09T15:10:25.856Z,96983.97
2023-02-09T15:15:28.525Z,96990.28
2023-02-09T15:20:31.448Z,96996.34
2023-02-09T15:25:33.843Z,96997.97
2023-02-09T15:30:36.271Z,97000.47
2023-02-09T15:35:38.698Z,97006.06
2023-02-09T15:40:59.001Z,97002.19
2023-02-09T15:46:18.979Z,97009.25
2023-02-09T15:51:21.484Z,97021.97
2023-02-09T15:56:24.123Z,97025.84
2023-02-09T16:01:26.659Z,97027.28
2023-02-09T16:06:29.284Z,97037.31
2023-02-09T16:11:33.072Z,97044.16
2023-02-09T16:16:35.391Z,97045.53
2023-02-09T16:21:37.663Z,97055.19
2023-02-09T16:26:40.087Z,97058.53
2023-02-09T16:31:42.510Z,97065.88
2023-02-09T16:36:46.057Z,97075.66
2023-02-09T16:41:51.053Z,97077.09
2023-02-09T16:46:53.515Z,97088.09
2023-02-09T16:51:56.008Z,97095.06
2023-02-09T16:56:58.306Z,97101.06
2023-02-09T17:02:02.120Z,97111.88
2023-02-09T17:07:04.618Z,97121.31
2023-02-09T17:12:07.306Z,97127.63
2023-02-09T17:17:09.685Z,97125.84
2023-02-09T17:22:12.067Z,97132.09
2023-02-09T17:27:14.558Z,97143.34
2023-02-09T17:32:17.583Z,97147.16
2023-02-09T17:37:19.912Z,97151.47
2023-02-09T17:42:22.539Z,97157.03
2023-02-09T17:47:25.003Z,97157.88
2023-02-09T17:52:27.375Z,97157.88
2023-02-09T17:57:29.774Z,97167.28
2023-02-09T18:02:32.385Z,97176.34
2023-02-09T18:07:34.868Z,97162.34
2023-02-09T18:12:37.295Z,97168.28
2023-02-09T18:17:42.293Z,97174.53
2023-02-09T18:22:45.189Z,97178.84
2023-02-09T18:27:47.464Z,97170.53
2023-02-09T18:32:50.076Z,97177.75
2023-02-09T18:37:52.398Z,97177.41
2023-02-09T18:42:54.783Z,97182.13
2023-02-09T18:47:57.226Z,97184.66
2023-02-09T18:52:59.943Z,97187.63
2023-02-09T18:58:02.381Z,97191.19
2023-02-09T19:03:04.910Z,97196.13
2023-02-09T19:08:08.185Z,97199.81
2023-02-09T19:13:10.745Z,97206.00
2023-02-09T19:18:13.064Z,97213.19
2023-02-09T19:23:15.346Z,97208.50
2023-02-09T19:28:17.961Z,97213.06
2023-02-09T19:33:23.137Z,97220.91
2023-02-09T19:38:25.982Z,97209.72
2023-02-09T19:43:28.385Z,97216.59
2023-02-09T19:48:30.772Z,97225.22
2023-02-09T19:53:33.049Z,97220.09
2023-02-09T19:58:35.458Z,97210.19
2023-02-09T20:03:38.019Z,97216.22
2023-02-09T20:08:40.724Z,97218.16
2023-02-09T20:13:43.268Z,97225.09
2023-02-09T20:18:47.939Z,97229.81
2023-02-09T20:23:50.258Z,97236.06
2023-02-09T20:28:52.686Z,97234.69
2023-02-09T20:33:55.152Z,97242.75
2023-02-09T20:38:57.624Z,97233.28
2023-02-09T20:44:17.420Z,97232.41
2023-02-09T20:49:19.827Z,97246.22
2023-02-09T20:54:22.256Z,97248.72
2023-02-09T20:59:24.676Z,97262.81
2023-02-09T21:04:30.107Z,97263.19
2023-02-09T21:09:34.356Z,97262.81
2023-02-09T21:14:43.912Z,97268.22
2023-02-09T21:19:46.557Z,97274.75
2023-02-09T21:24:48.900Z,97271.28
2023-02-09T21:29:51.222Z,97278.13
2023-02-09T21:34:53.567Z,97287.31
2023-02-09T21:39:55.926Z,97290.38
2023-02-09T21:44:58.292Z,97285.47
2023-02-09T21:50:00.685Z,97293.34
2023-02-09T21:55:03.078Z,97301.00
2023-02-09T22:00:07.671Z,97303.41
2023-02-09T22:05:10.063Z,97310.84
2023-02-09T22:10:12.381Z,97306.84
2023-02-09T22:15:15.180Z,97306.13
2023-02-09T22:20:17.665Z,97314.84
2023-02-09T22:25:22.597Z,97314.47
2023-02-09T22:30:24.992Z,97318.34
2023-02-09T22:35:27.419Z,97319.31
2023-02-09T22:40:29.839Z,97313.94
2023-02-09T22:45:32.288Z,97314.25
2023-02-09T22:50:34.631Z,97317.59
2023-02-09T22:55:37.041Z,97327.53
2023-02-09T23:00:39.347Z,97326.00
2023-02-09T23:05:41.688Z,97332.22
2023-02-09T23:10:43.963Z,97322.69
2023-02-09T23:15:46.725Z,97310.69
2023-02-09T23:20:49.555Z,97302.09
2023-02-09T23:25:51.862Z,97305.78
2023-02-09T23:30:54.322Z,97307.44
2023-02-09T23:35:56.712Z,97318.06
2023-02-09T23:40:58.982Z,97324.44
2023-02-09T23:46:01.368Z,97324.00
2023-02-09T23:51:03.896Z,97323.72
2023-02-09T23:56:06.330Z,97331.16
